»·PEaware :: AXY27 KBFI-KSFO

AXY27 :: KBFI-KSFO

FLIGHT INFORMATION

Flight Status: Arrived
Operator:
Axis Airways
More flights by this operator :: More flights under this callsign
Pilot: Cullen C. (7783)
Aircraft: BOEING 767-300
(B763)
More flights by this aircraft type
Origin: KBFI Boeing Field/King Co Intl
United States
Destination: KSFO San Francisco Intl
United States
More flights between these airports :: More routes between these airports
Route: SEA J70 ELMAA OED J501 PYE GOLDN7
File this flight plan on PilotEdge
Remarks: AXY is AirX charter based out of Malta, callsign Legend
Altitude:
(Current/Filed)
40,000ft
Speed:
(Current/Filed)
450kts
Departed: 30-Mar-17 07:18 PM
Arrived: 30-Mar-17 08:53 PM
Distance/Time
Traveled:
594nm/1:35
Distance/Time
To Go:
Arrived

Flight Plot

Page will automatically refresh every two minutes.

Flight plan parsing failed; only flown route is shown


Map Options




Map Legend


Flown Route
Filed Route
Departure Airport
Arrival Airport
Navaid (VOR, NDB)
Fix

Horizontal Profiles

Position Reports

Time Latitude Longitude Heading Altitude Ground
Speed
30-Mar-17 18:49 47.540045 -122.313730 182 31ft 0kts
30-Mar-17 18:50 47.540045 -122.313730 182 31ft 0kts
30-Mar-17 18:51 47.540045 -122.313730 182 31ft 0kts
30-Mar-17 18:52 47.540045 -122.313730 182 31ft 0kts
30-Mar-17 18:53 47.540045 -122.313730 182 31ft 0kts
30-Mar-17 18:54 47.540045 -122.313730 182 31ft 0kts
30-Mar-17 18:55 47.540045 -122.313730 182 31ft 0kts
30-Mar-17 18:56 47.540045 -122.313730 182 31ft 0kts
30-Mar-17 18:57 47.540045 -122.313730 182 31ft 0kts
30-Mar-17 18:58 47.540045 -122.313730 182 31ft 0kts
30-Mar-17 18:59 47.540045 -122.313730 182 31ft 0kts
30-Mar-17 19:00 47.540045 -122.313730 182 31ft 0kts
30-Mar-17 19:01 47.540045 -122.313730 182 31ft 0kts
30-Mar-17 19:02 47.540045 -122.313730 182 31ft 0kts
30-Mar-17 19:03 47.540045 -122.313730 182 31ft 0kts
30-Mar-17 19:04 47.540045 -122.313730 182 31ft 0kts
30-Mar-17 19:05 47.540045 -122.313730 182 31ft 0kts
30-Mar-17 19:06 47.540045 -122.313730 182 31ft 0kts
30-Mar-17 19:07 47.540045 -122.313730 182 31ft 0kts
30-Mar-17 19:08 47.540045 -122.313730 182 31ft 0kts
30-Mar-17 19:09 47.540045 -122.313730 182 31ft 0kts
30-Mar-17 19:10 47.539592 -122.313315 96 31ft 6kts
30-Mar-17 19:11 47.536255 -122.309218 149 31ft 30kts
30-Mar-17 19:12 47.527682 -122.302033 150 31ft 37kts
30-Mar-17 19:13 47.518782 -122.294551 152 31ft 25kts
30-Mar-17 19:14 47.516752 -122.292819 126 31ft 0kts
30-Mar-17 19:15 47.516752 -122.292819 126 31ft 0kts
30-Mar-17 19:16 47.516731 -122.292771 123 31ft 0kts
30-Mar-17 19:17 47.516731 -122.292771 123 31ft 0kts
30-Mar-17 19:18 47.517419 -122.291815 333 31ft 18kts
30-Mar-17 19:19 47.546674 -122.315670 329 2372ft 215kts
30-Mar-17 19:20 47.606037 -122.368294 328 8133ft 261kts
30-Mar-17 19:21 47.670327 -122.427473 307 12013ft 286kts
30-Mar-17 19:22 47.659495 -122.523617 211 11997ft 283kts
30-Mar-17 19:23 47.588564 -122.484336 133 12015ft 314kts
30-Mar-17 19:24 47.522031 -122.401817 150 16295ft 328kts
30-Mar-17 19:25 47.439973 -122.358866 199 20201ft 322kts
30-Mar-17 19:26 47.387861 -122.451678 263 23040ft 328kts
30-Mar-17 19:27 47.365875 -122.576453 252 22995ft 316kts
30-Mar-17 19:28 47.336020 -122.695929 250 23001ft 316kts
30-Mar-17 19:29 47.304505 -122.817449 250 23964ft 327kts
30-Mar-17 19:30 47.272090 -122.941432 251 27489ft 331kts
30-Mar-17 19:31 47.238507 -123.069214 253 30388ft 344kts
30-Mar-17 19:32 47.203602 -123.201282 253 33028ft 353kts
30-Mar-17 19:33 47.162015 -123.334260 238 35129ft 378kts
30-Mar-17 19:34 47.066430 -123.415665 199 36790ft 437kts
30-Mar-17 19:35 46.940342 -123.395387 175 38173ft 479kts
30-Mar-17 19:36 46.821452 -123.373184 182 39360ft 482kts
30-Mar-17 19:37 46.702928 -123.358787 182 40009ft 480kts
30-Mar-17 19:38 46.571138 -123.343768 182 40023ft 477kts
30-Mar-17 19:39 46.439694 -123.328935 182 40021ft 477kts
30-Mar-17 19:40 46.307931 -123.314159 182 40014ft 480kts
30-Mar-17 19:41 46.171234 -123.298907 179 40048ft 504kts
30-Mar-17 19:42 46.032626 -123.283483 179 40043ft 501kts
30-Mar-17 19:43 45.896357 -123.268389 179 40043ft 499kts
30-Mar-17 19:44 45.763145 -123.253735 179 40022ft 496kts
30-Mar-17 19:45 45.626673 -123.238799 179 40007ft 494kts
30-Mar-17 19:46 45.491367 -123.224064 179 40009ft 491kts
30-Mar-17 19:47 45.356161 -123.209375 179 40028ft 489kts
30-Mar-17 19:48 45.222006 -123.194902 179 40024ft 488kts
30-Mar-17 19:49 45.088476 -123.180562 179 40041ft 486kts
30-Mar-17 19:50 44.954918 -123.166285 179 40031ft 486kts
30-Mar-17 19:51 44.825527 -123.152514 179 40006ft 485kts
30-Mar-17 19:52 44.692823 -123.138452 179 40007ft 483kts
30-Mar-17 19:53 44.560646 -123.124513 179 40027ft 481kts
30-Mar-17 19:54 44.429015 -123.110714 179 40038ft 480kts
30-Mar-17 19:55 44.298270 -123.097026 179 40161ft 476kts
30-Mar-17 19:56 44.169338 -123.083612 179 40149ft 475kts
30-Mar-17 19:57 44.038328 -123.070047 179 40132ft 476kts
30-Mar-17 19:58 43.906638 -123.056465 179 40134ft 476kts
30-Mar-17 19:59 43.788976 -123.044379 179 40120ft 475kts
30-Mar-17 20:00 43.662416 -123.031433 179 40122ft 473kts
30-Mar-17 20:01 43.539985 -123.018939 180 40127ft 472kts
30-Mar-17 20:02 43.413898 -123.006179 180 40100ft 473kts
30-Mar-17 20:03 43.291641 -122.993828 180 40102ft 473kts
30-Mar-17 20:04 43.160686 -122.980663 180 40106ft 476kts
30-Mar-17 20:05 43.023726 -122.967001 179 40134ft 516kts
30-Mar-17 20:06 42.889335 -122.953552 179 40115ft 530kts
30-Mar-17 20:07 42.760334 -122.940731 179 40085ft 530kts
30-Mar-17 20:08 42.629267 -122.927768 179 40071ft 531kts
30-Mar-17 20:09 42.481688 -122.913263 180 40063ft 529kts
30-Mar-17 20:10 42.334924 -122.911422 183 40076ft 530kts
30-Mar-17 20:11 42.188331 -122.909871 183 40078ft 530kts
30-Mar-17 20:12 42.041040 -122.908264 183 40080ft 531kts
30-Mar-17 20:13 41.896946 -122.906716 183 40032ft 531kts
30-Mar-17 20:14 41.763756 -122.905292 183 40013ft 532kts
30-Mar-17 20:15 41.626475 -122.903816 183 40016ft 532kts
30-Mar-17 20:16 41.486459 -122.902324 183 40036ft 532kts
30-Mar-17 20:17 41.347610 -122.900864 183 40031ft 534kts
30-Mar-17 20:18 41.204792 -122.899353 183 39948ft 534kts
30-Mar-17 20:19 41.061971 -122.897854 183 39971ft 535kts
30-Mar-17 20:20 40.918672 -122.896346 183 39975ft 535kts
30-Mar-17 20:21 40.785082 -122.894971 183 39968ft 542kts
30-Mar-17 20:22 40.634603 -122.893398 183 39961ft 542kts
30-Mar-17 20:23 40.484633 -122.891857 183 39936ft 543kts
30-Mar-17 20:24 40.334044 -122.890283 183 39931ft 535kts
30-Mar-17 20:25 40.185540 -122.888783 183 39943ft 538kts
30-Mar-17 20:26 40.035806 -122.887271 183 39953ft 545kts
30-Mar-17 20:27 39.891929 -122.885798 183 39944ft 544kts
30-Mar-17 20:28 39.759674 -122.884470 183 39934ft 546kts
30-Mar-17 20:29 39.607597 -122.882938 183 39945ft 547kts
30-Mar-17 20:30 39.458305 -122.881412 183 39966ft 541kts
30-Mar-17 20:31 39.309005 -122.879935 183 39263ft 537kts
30-Mar-17 20:32 39.157642 -122.878466 183 36116ft 551kts
30-Mar-17 20:33 39.005629 -122.876854 184 27886ft 546kts
30-Mar-17 20:34 38.890535 -122.875663 185 24178ft 492kts
30-Mar-17 20:35 38.747987 -122.874493 184 24189ft 554kts
30-Mar-17 20:36 38.594851 -122.872908 184 23856ft 547kts
30-Mar-17 20:37 38.445611 -122.871460 185 21255ft 530kts
30-Mar-17 20:38 38.301847 -122.870040 185 18818ft 510kts
30-Mar-17 20:39 38.162683 -122.868673 183 16364ft 494kts
30-Mar-17 20:40 38.033174 -122.821861 146 14049ft 482kts
30-Mar-17 20:41 37.936168 -122.714178 134 12063ft 456kts
30-Mar-17 20:42 37.844436 -122.614421 136 12007ft 457kts
30-Mar-17 20:43 37.748023 -122.511128 136 11984ft 456kts
30-Mar-17 20:44 37.663401 -122.403061 113 10906ft 365kts
30-Mar-17 20:45 37.634782 -122.309530 93 8977ft 302kts
30-Mar-17 20:46 37.617219 -122.208580 93 7927ft 281kts
30-Mar-17 20:47 37.602575 -122.116413 96 5138ft 276kts
30-Mar-17 20:48 37.545248 -122.077404 216 4581ft 231kts
30-Mar-17 20:49 37.513091 -122.137969 264 3911ft 236kts
30-Mar-17 20:50 37.550992 -122.211903 306 2651ft 249kts
30-Mar-17 20:51 37.576888 -122.270003 300 1540ft 144kts
30-Mar-17 20:52 37.593167 -122.308476 298 880ft 113kts
30-Mar-17 20:53 37.608179 -122.344159 295 338ft 113kts
30-Mar-17 20:54 37.619083 -122.370439 297 25ft 37kts
30-Mar-17 20:55 37.623868 -122.381085 328 24ft 24kts
30-Mar-17 20:56 37.627527 -122.380337 343 24ft 13kts

Navigation Log

Ident Type
Flight plan parsing failed, navigation log unavailable